sensor_id;sensor_type;location;lat;lon;timestamp;pressure;altitude;pressure_sealevel;temperature;humidity
69411;BME280;56604;48.652;9.194;2023-07-13T00:00:10;96227.50;;;19.87;60.09
69411;BME280;56604;48.652;9.194;2023-07-13T00:02:36;96243.50;;;19.55;60.29
69411;BME280;56604;48.652;9.194;2023-07-13T00:05:01;96238.47;;;19.54;61.09
69411;BME280;56604;48.652;9.194;2023-07-13T00:07:27;96242.84;;;19.50;61.41
69411;BME280;56604;48.652;9.194;2023-07-13T00:09:52;96232.19;;;19.50;61.62
69411;BME280;56604;48.652;9.194;2023-07-13T00:12:29;96224.84;;;19.55;62.34
69411;BME280;56604;48.652;9.194;2023-07-13T00:14:59;96223.53;;;19.44;63.26
69411;BME280;56604;48.652;9.194;2023-07-13T00:17:26;96217.28;;;19.26;63.81
69411;BME280;56604;48.652;9.194;2023-07-13T00:19:52;96217.91;;;19.23;64.43
69411;BME280;56604;48.652;9.194;2023-07-13T00:22:17;96218.22;;;19.22;64.33
69411;BME280;56604;48.652;9.194;2023-07-13T00:24:43;96223.56;;;19.22;63.40
69411;BME280;56604;48.652;9.194;2023-07-13T00:27:09;96225.44;;;19.21;62.87
69411;BME280;56604;48.652;9.194;2023-07-13T00:29:35;96231.97;;;19.15;62.29
69411;BME280;56604;48.652;9.194;2023-07-13T00:32:02;96223.25;;;19.23;62.82
69411;BME280;56604;48.652;9.194;2023-07-13T00:34:28;96228.09;;;19.21;61.08
69411;BME280;56604;48.652;9.194;2023-07-13T00:36:53;96233.13;;;19.23;61.54
69411;BME280;56604;48.652;9.194;2023-07-13T00:39:18;96229.78;;;19.17;61.38
69411;BME280;56604;48.652;9.194;2023-07-13T00:41:46;96222.47;;;19.23;61.03
69411;BME280;56604;48.652;9.194;2023-07-13T00:44:15;96228.56;;;19.23;60.39
69411;BME280;56604;48.652;9.194;2023-07-13T00:46:41;96234.09;;;19.27;60.91
69411;BME280;56604;48.652;9.194;2023-07-13T00:49:09;96232.72;;;19.07;61.82
69411;BME280;56604;48.652;9.194;2023-07-13T00:51:40;96244.09;;;18.99;61.92
69411;BME280;56604;48.652;9.194;2023-07-13T00:54:11;96238.78;;;18.99;62.04
69411;BME280;56604;48.652;9.194;2023-07-13T00:56:40;96231.19;;;18.92;62.17
69411;BME280;56604;48.652;9.194;2023-07-13T00:59:08;96238.03;;;18.84;61.81
69411;BME280;56604;48.652;9.194;2023-07-13T01:01:35;96232.72;;;18.84;62.75
69411;BME280;56604;48.652;9.194;2023-07-13T01:04:02;96232.22;;;18.82;62.36
69411;BME280;56604;48.652;9.194;2023-07-13T01:06:27;96239.22;;;18.78;61.98
69411;BME280;56604;48.652;9.194;2023-07-13T01:08:53;96241.50;;;18.71;62.29
69411;BME280;56604;48.652;9.194;2023-07-13T01:11:21;96248.81;;;18.79;63.19
69411;BME280;56604;48.652;9.194;2023-07-13T01:13:47;96245.53;;;18.69;62.20
69411;BME280;56604;48.652;9.194;2023-07-13T01:16:22;96241.00;;;18.69;62.08
69411;BME280;56604;48.652;9.194;2023-07-13T01:18:49;96236.53;;;18.56;61.80
69411;BME280;56604;48.652;9.194;2023-07-13T01:21:14;96240.97;;;18.47;62.72
69411;BME280;56604;48.652;9.194;2023-07-13T01:23:39;96247.72;;;18.30;63.09
69411;BME280;56604;48.652;9.194;2023-07-13T01:26:05;96245.81;;;18.45;62.80
69411;BME280;56604;48.652;9.194;2023-07-13T01:28:30;96246.59;;;18.45;62.54
69411;BME280;56604;48.652;9.194;2023-07-13T01:30:57;96242.84;;;18.32;63.00
69411;BME280;56604;48.652;9.194;2023-07-13T01:33:23;96249.44;;;18.49;63.30
69411;BME280;56604;48.652;9.194;2023-07-13T01:35:48;96245.41;;;18.37;62.87
69411;BME280;56604;48.652;9.194;2023-07-13T01:38:15;96239.13;;;18.33;63.24
69411;BME280;56604;48.652;9.194;2023-07-13T01:40:42;96243.97;;;18.31;62.86
69411;BME280;56604;48.652;9.194;2023-07-13T01:43:08;96240.50;;;18.31;62.74
69411;BME280;56604;48.652;9.194;2023-07-13T01:45:34;96250.97;;;18.27;62.67
69411;BME280;56604;48.652;9.194;2023-07-13T01:48:00;96244.84;;;18.13;63.72
69411;BME280;56604;48.652;9.194;2023-07-13T01:50:25;96250.97;;;18.13;63.29
69411;BME280;56604;48.652;9.194;2023-07-13T01:52:51;96246.44;;;18.14;63.62
69411;BME280;56604;48.652;9.194;2023-07-13T01:55:16;96255.72;;;18.16;63.19
69411;BME280;56604;48.652;9.194;2023-07-13T01:57:42;96250.16;;;18.13;63.40
69411;BME280;56604;48.652;9.194;2023-07-13T02:00:09;96254.94;;;18.02;63.34
69411;BME280;56604;48.652;9.194;2023-07-13T02:02:35;96256.31;;;18.00;63.37
69411;BME280;56604;48.652;9.194;2023-07-13T02:05:00;96248.59;;;17.98;63.71
69411;BME280;56604;48.652;9.194;2023-07-13T02:07:26;96252.75;;;17.90;63.78
69411;BME280;56604;48.652;9.194;2023-07-13T02:09:51;96250.97;;;17.86;63.23
69411;BME280;56604;48.652;9.194;2023-07-13T02:12:16;96259.06;;;17.94;63.07
69411;BME280;56604;48.652;9.194;2023-07-13T02:14:41;96257.28;;;17.90;63.29
69411;BME280;56604;48.652;9.194;2023-07-13T02:17:09;96260.50;;;17.87;63.30
69411;BME280;56604;48.652;9.194;2023-07-13T02:19:34;96254.31;;;17.91;63.05
69411;BME280;56604;48.652;9.194;2023-07-13T02:22:00;96251.94;;;17.90;62.80
69411;BME280;56604;48.652;9.194;2023-07-13T02:24:25;96254.50;;;17.81;63.14
69411;BME280;56604;48.652;9.194;2023-07-13T02:26:50;96256.28;;;17.86;62.08
69411;BME280;56604;48.652;9.194;2023-07-13T02:29:15;96261.44;;;17.96;61.33
69411;BME280;56604;48.652;9.194;2023-07-13T02:31:41;96262.31;;;17.91;61.90
69411;BME280;56604;48.652;9.194;2023-07-13T02:34:06;96263.19;;;17.87;61.74
69411;BME280;56604;48.652;9.194;2023-07-13T02:36:32;96268.13;;;17.80;62.41
69411;BME280;56604;48.652;9.194;2023-07-13T02:39:01;96270.03;;;17.74;62.60
69411;BME280;56604;48.652;9.194;2023-07-13T02:41:26;96273.88;;;17.68;63.26
69411;BME280;56604;48.652;9.194;2023-07-13T02:43:51;96273.19;;;17.62;63.33
69411;BME280;56604;48.652;9.194;2023-07-13T02:46:17;96272.78;;;17.69;63.01
69411;BME280;56604;48.652;9.194;2023-07-13T02:48:44;96271.38;;;17.58;63.33
69411;BME280;56604;48.652;9.194;2023-07-13T02:51:09;96263.84;;;17.65;62.41
69411;BME280;56604;48.652;9.194;2023-07-13T02:53:35;96259.00;;;17.67;62.49
69411;BME280;56604;48.652;9.194;2023-07-13T02:56:01;96268.25;;;17.69;62.01
69411;BME280;56604;48.652;9.194;2023-07-13T02:58:26;96258.00;;;17.63;62.36
69411;BME280;56604;48.652;9.194;2023-07-13T03:00:51;96258.81;;;17.63;62.25
69411;BME280;56604;48.652;9.194;2023-07-13T03:03:17;96264.69;;;17.60;62.63
69411;BME280;56604;48.652;9.194;2023-07-13T03:05:44;96265.56;;;17.56;63.22
69411;BME280;56604;48.652;9.194;2023-07-13T03:08:11;96268.63;;;17.49;62.24
69411;BME280;56604;48.652;9.194;2023-07-13T03:10:37;96265.69;;;17.50;62.86
69411;BME280;56604;48.652;9.194;2023-07-13T03:13:03;96264.16;;;17.44;63.34
69411;BME280;56604;48.652;9.194;2023-07-13T03:15:28;96273.53;;;17.42;63.36
69411;BME280;56604;48.652;9.194;2023-07-13T03:17:54;96278.66;;;17.52;63.44
69411;BME280;56604;48.652;9.194;2023-07-13T03:20:19;96268.22;;;17.42;63.48
69411;BME280;56604;48.652;9.194;2023-07-13T03:22:45;96282.56;;;17.41;64.06
69411;BME280;56604;48.652;9.194;2023-07-13T03:25:10;96279.06;;;17.45;63.74
69411;BME280;56604;48.652;9.194;2023-07-13T03:27:36;96271.97;;;17.54;63.09
69411;BME280;56604;48.652;9.194;2023-07-13T03:30:02;96283.91;;;17.57;63.11
69411;BME280;56604;48.652;9.194;2023-07-13T03:32:28;96286.75;;;17.61;63.62
69411;BME280;56604;48.652;9.194;2023-07-13T03:34:53;96279.28;;;17.63;62.91
69411;BME280;56604;48.652;9.194;2023-07-13T03:37:18;96291.47;;;17.64;63.33
69411;BME280;56604;48.652;9.194;2023-07-13T03:39:44;96289.16;;;17.76;63.08
69411;BME280;56604;48.652;9.194;2023-07-13T03:42:09;96282.38;;;17.84;63.13
69411;BME280;56604;48.652;9.194;2023-07-13T03:44:35;96289.59;;;17.83;62.87
69411;BME280;56604;48.652;9.194;2023-07-13T03:47:00;96290.19;;;17.94;63.11
69411;BME280;56604;48.652;9.194;2023-07-13T03:49:25;96288.41;;;17.89;63.42
69411;BME280;56604;48.652;9.194;2023-07-13T03:51:51;96297.28;;;17.98;62.46
69411;BME280;56604;48.652;9.194;2023-07-13T03:54:16;96294.53;;;18.04;62.87
69411;BME280;56604;48.652;9.194;2023-07-13T03:56:42;96294.94;;;18.11;62.55
69411;BME280;56604;48.652;9.194;2023-07-13T03:59:07;96306.16;;;18.08;62.32
69411;BME280;56604;48.652;9.194;2023-07-13T04:01:33;96300.84;;;18.08;62.29
69411;BME280;56604;48.652;9.194;2023-07-13T04:03:58;96305.75;;;18.28;62.11
69411;BME280;56604;48.652;9.194;2023-07-13T04:06:27;96308.03;;;18.21;61.54
69411;BME280;56604;48.652;9.194;2023-07-13T04:08:55;96301.03;;;18.25;62.13
69411;BME280;56604;48.652;9.194;2023-07-13T04:11:23;96304.66;;;18.29;61.95
69411;BME280;56604;48.652;9.194;2023-07-13T04:13:49;96311.09;;;18.28;61.63
69411;BME280;56604;48.652;9.194;2023-07-13T04:16:17;96310.69;;;18.21;60.63
69411;BME280;56604;48.652;9.194;2023-07-13T04:18:42;96315.22;;;18.34;60.49
69411;BME280;56604;48.652;9.194;2023-07-13T04:21:08;96308.94;;;18.30;61.69
69411;BME280;56604;48.652;9.194;2023-07-13T04:23:34;96315.22;;;18.34;61.34
69411;BME280;56604;48.652;9.194;2023-07-13T04:26:00;96316.19;;;18.38;61.72
69411;BME280;56604;48.652;9.194;2023-07-13T04:28:26;96309.31;;;18.37;62.05
69411;BME280;56604;48.652;9.194;2023-07-13T04:30:52;96321.13;;;18.45;61.88
69411;BME280;56604;48.652;9.194;2023-07-13T04:33:18;96317.19;;;18.56;61.51
69411;BME280;56604;48.652;9.194;2023-07-13T04:35:47;96320.72;;;18.52;61.55
69411;BME280;56604;48.652;9.194;2023-07-13T04:38:12;96328.22;;;18.50;61.95
69411;BME280;56604;48.652;9.194;2023-07-13T04:40:38;96321.50;;;18.52;61.68
69411;BME280;56604;48.652;9.194;2023-07-13T04:43:03;96323.50;;;18.47;62.32
69411;BME280;56604;48.652;9.194;2023-07-13T04:45:29;96328.22;;;18.50;62.08
69411;BME280;56604;48.652;9.194;2023-07-13T04:47:56;96329.81;;;18.51;62.14
69411;BME280;56604;48.652;9.194;2023-07-13T04:50:21;96323.09;;;18.67;61.80
69411;BME280;56604;48.652;9.194;2023-07-13T04:52:48;96324.84;;;18.58;61.29
69411;BME280;56604;48.652;9.194;2023-07-13T04:55:14;96331.19;;;18.76;60.60
69411;BME280;56604;48.652;9.194;2023-07-13T04:57:40;96331.28;;;18.84;60.53
69411;BME280;56604;48.652;9.194;2023-07-13T05:00:05;96328.13;;;18.82;60.75
69411;BME280;56604;48.652;9.194;2023-07-13T05:02:32;96327.59;;;18.94;60.11
69411;BME280;56604;48.652;9.194;2023-07-13T05:04:58;96322.44;;;18.98;60.00
69411;BME280;56604;48.652;9.194;2023-07-13T05:07:25;96327.97;;;19.01;60.18
69411;BME280;56604;48.652;9.194;2023-07-13T05:09:50;96324.56;;;19.09;59.76
69411;BME280;56604;48.652;9.194;2023-07-13T05:12:15;96326.91;;;19.25;59.06
69411;BME280;56604;48.652;9.194;2023-07-13T05:14:41;96328.19;;;19.50;58.64
69411;BME280;56604;48.652;9.194;2023-07-13T05:17:06;96331.44;;;19.69;57.72
69411;BME280;56604;48.652;9.194;2023-07-13T05:19:31;96337.78;;;19.73;57.16
69411;BME280;56604;48.652;9.194;2023-07-13T05:21:57;96339.78;;;19.99;56.31
69411;BME280;56604;48.652;9.194;2023-07-13T05:24:22;96345.28;;;20.03;55.71
69411;BME280;56604;48.652;9.194;2023-07-13T05:26:48;96341.44;;;19.86;56.47
69411;BME280;56604;48.652;9.194;2023-07-13T05:29:13;96346.59;;;20.14;56.51
69411;BME280;56604;48.652;9.194;2023-07-13T05:31:38;96349.03;;;20.33;56.02
69411;BME280;56604;48.652;9.194;2023-07-13T05:34:03;96352.34;;;20.30;57.09
69411;BME280;56604;48.652;9.194;2023-07-13T05:36:29;96351.84;;;20.28;56.83
69411;BME280;56604;48.652;9.194;2023-07-13T05:38:55;96349.44;;;20.17;57.27
69411;BME280;56604;48.652;9.194;2023-07-13T05:41:20;96346.50;;;20.28;56.93
69411;BME280;56604;48.652;9.194;2023-07-13T05:43:45;96350.72;;;20.20;57.52
69411;BME280;56604;48.652;9.194;2023-07-13T05:46:10;96348.69;;;20.26;57.15
69411;BME280;56604;48.652;9.194;2023-07-13T05:48:36;96348.75;;;20.43;56.96
69411;BME280;56604;48.652;9.194;2023-07-13T05:51:01;96360.00;;;20.22;57.42
69411;BME280;56604;48.652;9.194;2023-07-13T05:53:27;96358.91;;;20.24;56.95
69411;BME280;56604;48.652;9.194;2023-07-13T05:55:54;96368.00;;;19.91;58.49
69411;BME280;56604;48.652;9.194;2023-07-13T05:58:20;96376.38;;;19.76;60.50
69411;BME280;56604;48.652;9.194;2023-07-13T06:00:46;96373.38;;;20.00;60.11
69411;BME280;56604;48.652;9.194;2023-07-13T06:03:12;96374.97;;;20.01;59.54
69411;BME280;56604;48.652;9.194;2023-07-13T06:05:38;96375.72;;;20.24;59.65
69411;BME280;56604;48.652;9.194;2023-07-13T06:08:04;96380.38;;;21.68;55.39
69411;BME280;56604;48.652;9.194;2023-07-13T06:10:33;96376.19;;;23.20;50.95
69411;BME280;56604;48.652;9.194;2023-07-13T06:12:58;96379.66;;;24.78;46.98
69411;BME280;56604;48.652;9.194;2023-07-13T06:15:23;96377.06;;;25.75;44.41
69411;BME280;56604;48.652;9.194;2023-07-13T06:17:49;96385.63;;;27.35;41.01
69411;BME280;56604;48.652;9.194;2023-07-13T06:20:14;96390.56;;;27.92;38.78
69411;BME280;56604;48.652;9.194;2023-07-13T06:22:39;96387.22;;;28.64;35.65
69411;BME280;56604;48.652;9.194;2023-07-13T06:25:05;96397.25;;;28.63;36.35
69411;BME280;56604;48.652;9.194;2023-07-13T06:27:30;96397.03;;;29.89;33.55
69411;BME280;56604;48.652;9.194;2023-07-13T06:29:56;96406.63;;;29.49;33.52
69411;BME280;56604;48.652;9.194;2023-07-13T06:32:21;96414.25;;;29.70;32.52
69411;BME280;56604;48.652;9.194;2023-07-13T06:34:46;96405.78;;;30.09;31.37
69411;BME280;56604;48.652;9.194;2023-07-13T06:37:12;96408.00;;;29.36;32.13
69411;BME280;56604;48.652;9.194;2023-07-13T06:39:37;96401.66;;;30.22;32.61
69411;BME280;56604;48.652;9.194;2023-07-13T06:42:02;96410.47;;;30.53;32.08
69411;BME280;56604;48.652;9.194;2023-07-13T06:44:28;96427.69;;;29.33;32.97
69411;BME280;56604;48.652;9.194;2023-07-13T06:46:53;96416.97;;;29.70;32.57
69411;BME280;56604;48.652;9.194;2023-07-13T06:49:19;96420.81;;;29.39;33.06
69411;BME280;56604;48.652;9.194;2023-07-13T06:51:44;96415.63;;;31.17;29.97
69411;BME280;56604;48.652;9.194;2023-07-13T06:54:09;96404.38;;;32.13;30.14
69411;BME280;56604;48.652;9.194;2023-07-13T06:56:38;96414.25;;;31.48;29.25
69411;BME280;56604;48.652;9.194;2023-07-13T06:59:03;96413.59;;;31.76;29.64
69411;BME280;56604;48.652;9.194;2023-07-13T07:01:28;96417.50;;;31.90;27.92
69411;BME280;56604;48.652;9.194;2023-07-13T07:03:54;96413.34;;;32.14;26.45
69411;BME280;56604;48.652;9.194;2023-07-13T07:06:21;96422.91;;;31.79;27.47
69411;BME280;56604;48.652;9.194;2023-07-13T07:08:50;96425.78;;;32.33;27.51
69411;BME280;56604;48.652;9.194;2023-07-13T07:11:24;96420.78;;;32.49;26.49
69411;BME280;56604;48.652;9.194;2023-07-13T07:13:51;96430.84;;;32.31;26.79
69411;BME280;56604;48.652;9.194;2023-07-13T07:16:16;96418.44;;;32.94;26.33
69411;BME280;56604;48.652;9.194;2023-07-13T07:18:42;96418.72;;;31.19;27.45
69411;BME280;56604;48.652;9.194;2023-07-13T07:21:07;96420.31;;;32.11;26.95
69411;BME280;56604;48.652;9.194;2023-07-13T07:23:32;96426.19;;;32.31;26.12
69411;BME280;56604;48.652;9.194;2023-07-13T07:25:57;96427.03;;;33.10;25.84
69411;BME280;56604;48.652;9.194;2023-07-13T07:28:23;96436.22;;;31.98;27.59
69411;BME280;56604;48.652;9.194;2023-07-13T07:30:51;96428.16;;;32.84;26.62
69411;BME280;56604;48.652;9.194;2023-07-13T07:33:17;96422.34;;;32.57;27.07
69411;BME280;56604;48.652;9.194;2023-07-13T07:35:42;96425.97;;;31.70;26.31
69411;BME280;56604;48.652;9.194;2023-07-13T07:38:08;96416.13;;;32.46;26.36
69411;BME280;56604;48.652;9.194;2023-07-13T07:40:40;96428.81;;;31.99;26.60
69411;BME280;56604;48.652;9.194;2023-07-13T07:43:09;96433.28;;;31.52;26.14
69411;BME280;56604;48.652;9.194;2023-07-13T07:45:38;96431.41;;;31.70;26.64
69411;BME280;56604;48.652;9.194;2023-07-13T07:48:05;96430.69;;;31.77;26.96
69411;BME280;56604;48.652;9.194;2023-07-13T07:50:32;96425.81;;;33.19;25.24
69411;BME280;56604;48.652;9.194;2023-07-13T07:52:57;96424.69;;;32.87;25.71
69411;BME280;56604;48.652;9.194;2023-07-13T07:55:24;96434.28;;;33.64;24.97
69411;BME280;56604;48.652;9.194;2023-07-13T07:57:52;96438.66;;;32.43;27.13
69411;BME280;56604;48.652;9.194;2023-07-13T08:00:18;96435.56;;;32.48;25.84
69411;BME280;56604;48.652;9.194;2023-07-13T08:02:44;96442.53;;;32.28;26.24
69411;BME280;56604;48.652;9.194;2023-07-13T08:05:10;96429.34;;;33.01;25.08
69411;BME280;56604;48.652;9.194;2023-07-13T08:07:39;96446.19;;;31.66;26.16
69411;BME280;56604;48.652;9.194;2023-07-13T08:10:08;96434.84;;;30.09;30.16
69411;BME280;56604;48.652;9.194;2023-07-13T08:12:35;96436.22;;;29.95;29.58
69411;BME280;56604;48.652;9.194;2023-07-13T08:15:01;96435.06;;;30.30;28.48
69411;BME280;56604;48.652;9.194;2023-07-13T08:17:26;96434.53;;;31.72;27.38
69411;BME280;56604;48.652;9.194;2023-07-13T08:19:51;96437.13;;;28.66;30.37
69411;BME280;56604;48.652;9.194;2023-07-13T08:22:17;96428.00;;;31.14;28.78
69411;BME280;56604;48.652;9.194;2023-07-13T08:24:42;96436.72;;;31.38;28.83
69411;BME280;56604;48.652;9.194;2023-07-13T08:27:08;96433.72;;;31.61;27.08
69411;BME280;56604;48.652;9.194;2023-07-13T08:29:36;96423.91;;;32.76;27.09
69411;BME280;56604;48.652;9.194;2023-07-13T08:32:02;96431.69;;;33.03;26.29
69411;BME280;56604;48.652;9.194;2023-07-13T08:34:27;96440.03;;;31.90;26.62
69411;BME280;56604;48.652;9.194;2023-07-13T08:36:52;96430.91;;;32.77;25.74
69411;BME280;56604;48.652;9.194;2023-07-13T08:39:17;96433.75;;;31.68;25.29
69411;BME280;56604;48.652;9.194;2023-07-13T08:41:48;96438.38;;;31.57;27.13
69411;BME280;56604;48.652;9.194;2023-07-13T08:44:48;96426.63;;;32.51;24.28
69411;BME280;56604;48.652;9.194;2023-07-13T08:47:11;96442.59;;;32.85;24.27
69411;BME280;56604;48.652;9.194;2023-07-13T08:49:38;96430.88;;;33.27;24.04
69411;BME280;56604;48.652;9.194;2023-07-13T08:52:30;96436.34;;;32.88;24.60
69411;BME280;56604;48.652;9.194;2023-07-13T08:54:58;96430.50;;;32.64;24.79
69411;BME280;56604;48.652;9.194;2023-07-13T08:57:33;96433.78;;;30.58;26.62
69411;BME280;56604;48.652;9.194;2023-07-13T08:59:59;96428.00;;;30.63;27.72
69411;BME280;56604;48.652;9.194;2023-07-13T09:05:01;96428.56;;;32.90;24.81
69411;BME280;56604;48.652;9.194;2023-07-13T09:07:53;96434.78;;;33.01;24.42
69411;BME280;56604;48.652;9.194;2023-07-13T09:10:25;96446.19;;;31.66;24.07
69411;BME280;56604;48.652;9.194;2023-07-13T09:13:07;96437.81;;;32.17;24.68
69411;BME280;56604;48.652;9.194;2023-07-13T09:15:43;96437.44;;;32.22;24.86
69411;BME280;56604;48.652;9.194;2023-07-13T09:18:14;96433.03;;;30.61;25.97
69411;BME280;56604;48.652;9.194;2023-07-13T09:23:23;96443.47;;;31.69;25.13
69411;BME280;56604;48.652;9.194;2023-07-13T09:25:52;96443.75;;;31.43;25.61
69411;BME280;56604;48.652;9.194;2023-07-13T09:28:22;96446.19;;;31.66;27.00
69411;BME280;56604;48.652;9.194;2023-07-13T09:30:56;96431.13;;;30.24;26.40
69411;BME280;56604;48.652;9.194;2023-07-13T09:33:24;96439.50;;;30.12;26.77
69411;BME280;56604;48.652;9.194;2023-07-13T09:35:50;96439.13;;;30.91;26.54
69411;BME280;56604;48.652;9.194;2023-07-13T09:38:19;96440.63;;;30.44;26.08
69411;BME280;56604;48.652;9.194;2023-07-13T09:44:14;96430.41;;;30.31;27.16
69411;BME280;56604;48.652;9.194;2023-07-13T09:46:45;96436.44;;;29.49;28.16
69411;BME280;56604;48.652;9.194;2023-07-13T09:49:11;96433.13;;;29.06;28.49
69411;BME280;56604;48.652;9.194;2023-07-13T09:51:39;96432.78;;;29.98;27.52
69411;BME280;56604;48.652;9.194;2023-07-13T09:54:05;96431.47;;;30.60;27.75
69411;BME280;56604;48.652;9.194;2023-07-13T09:56:31;96431.59;;;30.78;27.15
69411;BME280;56604;48.652;9.194;2023-07-13T09:58:57;96429.75;;;30.85;26.60
69411;BME280;56604;48.652;9.194;2023-07-13T10:01:37;96429.72;;;30.82;26.41
69411;BME280;56604;48.652;9.194;2023-07-13T10:04:11;96441.66;;;29.95;27.12
69411;BME280;56604;48.652;9.194;2023-07-13T10:06:41;96434.22;;;29.58;28.31
69411;BME280;56604;48.652;9.194;2023-07-13T10:09:17;96427.34;;;29.65;28.20
69411;BME280;56604;48.652;9.194;2023-07-13T10:11:44;96424.06;;;29.52;28.48
69411;BME280;56604;48.652;9.194;2023-07-13T10:16:38;96428.06;;;29.05;27.92
69411;BME280;56604;48.652;9.194;2023-07-13T10:21:50;96432.19;;;29.22;28.60
69411;BME280;56604;48.652;9.194;2023-07-13T10:24:24;96430.50;;;29.13;28.44
69411;BME280;56604;48.652;9.194;2023-07-13T10:29:27;96434.47;;;29.20;29.61
69411;BME280;56604;48.652;9.194;2023-07-13T10:31:53;96424.25;;;29.36;28.97
69411;BME280;56604;48.652;9.194;2023-07-13T10:34:19;96434.88;;;28.95;28.78
69411;BME280;56604;48.652;9.194;2023-07-13T10:36:47;96438.41;;;29.52;29.73
69411;BME280;56604;48.652;9.194;2023-07-13T10:39:17;96430.19;;;28.92;29.69
69411;BME280;56604;48.652;9.194;2023-07-13T10:41:47;96432.56;;;28.97;29.38
69411;BME280;56604;48.652;9.194;2023-07-13T10:44:21;96424.38;;;30.11;27.78
69411;BME280;56604;48.652;9.194;2023-07-13T10:46:53;96424.97;;;31.30;27.26
69411;BME280;56604;48.652;9.194;2023-07-13T10:49:19;96424.03;;;30.16;27.93
69411;BME280;56604;48.652;9.194;2023-07-13T10:51:45;96429.75;;;30.85;27.72
69411;BME280;56604;48.652;9.194;2023-07-13T10:54:12;96432.09;;;31.42;27.30
69411;BME280;56604;48.652;9.194;2023-07-13T10:56:42;96422.34;;;29.67;27.86
69411;BME280;56604;48.652;9.194;2023-07-13T10:59:14;96425.56;;;30.13;28.12
69411;BME280;56604;48.652;9.194;2023-07-13T11:04:43;96422.56;;;30.63;27.45
69411;BME280;56604;48.652;9.194;2023-07-13T11:07:19;96420.81;;;29.39;28.02
69411;BME280;56604;48.652;9.194;2023-07-13T11:09:49;96415.91;;;30.57;27.26
69411;BME280;56604;48.652;9.194;2023-07-13T11:12:52;96411.34;;;30.68;27.30
69411;BME280;56604;48.652;9.194;2023-07-13T11:15:30;96406.81;;;30.35;28.74
69411;BME280;56604;48.652;9.194;2023-07-13T11:17:56;96400.88;;;30.22;27.23
69411;BME280;56604;48.652;9.194;2023-07-13T11:20:41;96401.63;;;30.60;28.54
69411;BME280;56604;48.652;9.194;2023-07-13T11:25:41;96405.19;;;30.71;27.25
69411;BME280;56604;48.652;9.194;2023-07-13T11:36:06;96402.13;;;29.94;28.00
69411;BME280;56604;48.652;9.194;2023-07-13T11:38:36;96391.69;;;29.96;27.65
69411;BME280;56604;48.652;9.194;2023-07-13T11:41:14;96392.16;;;29.38;29.32
69411;BME280;56604;48.652;9.194;2023-07-13T11:43:40;96384.94;;;29.49;29.40
69411;BME280;56604;48.652;9.194;2023-07-13T11:46:20;96394.34;;;29.02;29.82
69411;BME280;56604;48.652;9.194;2023-07-13T11:48:47;96395.88;;;28.50;30.80
69411;BME280;56604;48.652;9.194;2023-07-13T11:51:20;96384.41;;;28.14;31.19
69411;BME280;56604;48.652;9.194;2023-07-13T11:53:48;96386.66;;;28.78;29.99
69411;BME280;56604;48.652;9.194;2023-07-13T11:56:15;96385.84;;;28.77;28.55
69411;BME280;56604;48.652;9.194;2023-07-13T11:58:41;96390.53;;;27.49;30.76
69411;BME280;56604;48.652;9.194;2023-07-13T12:01:16;96388.38;;;27.39;32.41
69411;BME280;56604;48.652;9.194;2023-07-13T12:03:43;96395.53;;;26.80;32.57
69411;BME280;56604;48.652;9.194;2023-07-13T12:06:30;96393.47;;;27.09;32.55
69411;BME280;56604;48.652;9.194;2023-07-13T12:08:57;96385.03;;;27.65;33.26
69411;BME280;56604;48.652;9.194;2023-07-13T12:11:23;96397.72;;;27.61;31.76
69411;BME280;56604;48.652;9.194;2023-07-13T12:13:49;96399.84;;;27.17;31.32
69411;BME280;56604;48.652;9.194;2023-07-13T12:16:20;96392.44;;;27.49;31.24
69411;BME280;56604;48.652;9.194;2023-07-13T12:18:47;96384.19;;;27.42;31.28
69411;BME280;56604;48.652;9.194;2023-07-13T12:21:16;96386.47;;;27.40;31.72
69411;BME280;56604;48.652;9.194;2023-07-13T12:23:43;96390.44;;;27.65;31.24
69411;BME280;56604;48.652;9.194;2023-07-13T12:26:10;96384.03;;;27.73;32.10
69411;BME280;56604;48.652;9.194;2023-07-13T12:28:39;96389.75;;;27.88;30.69
69411;BME280;56604;48.652;9.194;2023-07-13T12:31:33;96397.41;;;27.27;30.83
69411;BME280;56604;48.652;9.194;2023-07-13T12:34:02;96390.22;;;27.74;30.00
69411;BME280;56604;48.652;9.194;2023-07-13T12:36:30;96388.25;;;27.90;30.33
69411;BME280;56604;48.652;9.194;2023-07-13T12:38:59;96385.75;;;28.01;30.72
69411;BME280;56604;48.652;9.194;2023-07-13T12:41:29;96392.44;;;27.88;31.19
69411;BME280;56604;48.652;9.194;2023-07-13T12:43:54;96391.72;;;28.56;29.86
69411;BME280;56604;48.652;9.194;2023-07-13T12:46:23;96384.50;;;28.18;30.19
69411;BME280;56604;48.652;9.194;2023-07-13T12:48:52;96381.50;;;27.80;29.74
69411;BME280;56604;48.652;9.194;2023-07-13T12:51:21;96386.63;;;27.47;32.40
69411;BME280;56604;48.652;9.194;2023-07-13T12:53:50;96384.88;;;27.77;30.89
69411;BME280;56604;48.652;9.194;2023-07-13T12:56:24;96379.94;;;27.79;31.19
69411;BME280;56604;48.652;9.194;2023-07-13T12:58:56;96385.78;;;27.82;30.48
69411;BME280;56604;48.652;9.194;2023-07-13T13:01:22;96375.81;;;27.86;29.69
69411;BME280;56604;48.652;9.194;2023-07-13T13:03:52;96374.25;;;27.85;30.15
69411;BME280;56604;48.652;9.194;2023-07-13T13:08:58;96388.94;;;27.48;30.26
69411;BME280;56604;48.652;9.194;2023-07-13T13:11:26;96378.34;;;27.78;30.04
69411;BME280;56604;48.652;9.194;2023-07-13T13:13:52;96375.78;;;27.66;28.44
69411;BME280;56604;48.652;9.194;2023-07-13T13:18:53;96380.84;;;27.48;30.76
69411;BME280;56604;48.652;9.194;2023-07-13T13:21:19;96376.81;;;27.39;31.02
69411;BME280;56604;48.652;9.194;2023-07-13T13:23:45;96378.63;;;27.34;31.76
69411;BME280;56604;48.652;9.194;2023-07-13T13:26:13;96380.63;;;27.38;30.54
69411;BME280;56604;48.652;9.194;2023-07-13T13:28:40;96380.50;;;28.12;31.04
69411;BME280;56604;48.652;9.194;2023-07-13T13:31:08;96374.88;;;28.20;29.56
69411;BME280;56604;48.652;9.194;2023-07-13T13:33:37;96377.91;;;27.76;29.57
69411;BME280;56604;48.652;9.194;2023-07-13T13:36:12;96367.56;;;27.98;30.46